createdAt,value
2019-05-21T00:01:22.115Z,3.30
2019-05-21T00:03:50.377Z,3.60
2019-05-21T00:06:18.678Z,3.33
2019-05-21T00:08:46.949Z,3.47
2019-05-21T00:11:15.197Z,3.53
2019-05-21T00:13:43.471Z,3.52
2019-05-21T00:16:11.748Z,3.40
2019-05-21T00:18:39.994Z,3.60
2019-05-21T00:21:08.434Z,3.30
2019-05-21T00:23:36.802Z,3.30
2019-05-21T00:26:05.038Z,3.30
2019-05-21T00:28:36.942Z,3.50
2019-05-21T00:31:42.214Z,3.62
2019-05-21T00:34:47.355Z,3.00
2019-05-21T00:37:52.742Z,3.50
2019-05-21T00:40:57.409Z,3.37
2019-05-21T00:43:49.966Z,3.50
2019-05-21T00:46:18.269Z,3.30
2019-05-21T00:48:46.581Z,3.10
2019-05-21T00:51:14.858Z,3.67
2019-05-21T00:53:43.097Z,3.37
2019-05-21T00:56:11.574Z,3.83
2019-05-21T00:58:39.838Z,3.35
2019-05-21T01:01:08.181Z,3.70
2019-05-21T01:03:36.466Z,2.90
2019-05-21T01:06:04.913Z,3.20
2019-05-21T01:08:33.634Z,3.60
2019-05-21T01:11:02.012Z,3.30
2019-05-21T01:13:30.318Z,3.22
2019-05-21T01:15:58.851Z,3.30
2019-05-21T01:18:27.129Z,3.60
2019-05-21T01:20:55.367Z,3.47
2019-05-21T01:23:23.648Z,3.43
2019-05-21T01:25:51.902Z,3.30
2019-05-21T01:28:20.176Z,3.55
2019-05-21T01:30:48.703Z,3.10
2019-05-21T01:33:16.977Z,3.13
2019-05-21T01:35:45.569Z,3.00
2019-05-21T01:38:13.829Z,3.17
2019-05-21T01:40:42.099Z,3.20
2019-05-21T01:43:10.359Z,3.13
2019-05-21T01:45:38.628Z,3.40
2019-05-21T01:48:06.904Z,3.40
2019-05-21T01:50:35.150Z,3.13
2019-05-21T01:53:03.510Z,3.20
2019-05-21T01:55:31.763Z,3.20
2019-05-21T01:58:00.103Z,3.27
2019-05-21T02:00:28.394Z,3.30
2019-05-21T02:02:56.658Z,3.20
2019-05-21T02:05:33.107Z,3.00
2019-05-21T02:07:54.937Z,3.60
2019-05-21T02:10:23.498Z,3.40
2019-05-21T02:12:51.832Z,3.17
2019-05-21T02:15:20.080Z,3.27
2019-05-21T02:17:48.387Z,3.37
2019-05-21T02:20:16.927Z,3.40
2019-05-21T02:22:45.229Z,3.03
2019-05-21T02:25:13.508Z,3.22
2019-05-21T02:27:41.808Z,3.40
2019-05-21T02:30:10.236Z,3.30
2019-05-21T02:32:38.571Z,3.37
2019-05-21T02:35:06.962Z,3.40
2019-05-21T02:37:35.221Z,3.50
2019-05-21T02:40:05.064Z,3.20
2019-05-21T02:42:33.313Z,2.90
2019-05-21T02:45:01.623Z,3.10
2019-05-21T02:47:30.018Z,3.50
2019-05-21T02:49:58.291Z,3.35
2019-05-21T02:52:26.565Z,3.40
2019-05-21T02:54:54.815Z,3.67
2019-05-21T02:57:24.727Z,3.20
2019-05-21T02:59:55.082Z,3.20
2019-05-21T03:02:27.950Z,3.30
2019-05-21T03:04:56.226Z,3.40
2019-05-21T03:07:25.689Z,3.27
2019-05-21T03:09:54.213Z,3.00
2019-05-21T03:12:22.477Z,3.10
2019-05-21T03:14:50.820Z,3.00
2019-05-21T03:17:19.360Z,3.30
2019-05-21T03:19:47.701Z,3.37
2019-05-21T03:22:16.078Z,3.10
2019-05-21T03:24:44.796Z,3.17
2019-05-21T03:27:13.162Z,3.30
2019-05-21T03:29:41.402Z,3.02
2019-05-21T03:32:09.696Z,3.20
2019-05-21T03:34:38.034Z,3.50
2019-05-21T03:37:06.421Z,3.10
2019-05-21T03:39:34.668Z,3.17
2019-05-21T03:42:03.241Z,3.40
2019-05-21T03:44:31.578Z,3.00
2019-05-21T03:46:59.842Z,3.27
2019-05-21T03:49:28.371Z,2.80
2019-05-21T03:51:56.653Z,2.77
2019-05-21T03:54:24.952Z,3.20
2019-05-21T03:56:53.234Z,3.00
2019-05-21T03:59:21.794Z,3.47
2019-05-21T04:01:50.396Z,3.20
2019-05-21T04:04:18.693Z,3.10
2019-05-21T04:06:51.697Z,3.20
2019-05-21T04:09:17.162Z,2.97
2019-05-21T04:11:45.437Z,3.23
2019-05-21T04:14:15.334Z,3.15
2019-05-21T04:16:57.032Z,3.37
2019-05-21T04:19:29.682Z,3.03
2019-05-21T04:21:57.958Z,2.97
2019-05-21T04:24:26.202Z,3.30
2019-05-21T04:26:54.471Z,3.10
2019-05-21T04:29:22.772Z,3.40
2019-05-21T04:31:51.317Z,3.20
2019-05-21T04:34:19.554Z,3.27
2019-05-21T04:36:47.861Z,3.17
2019-05-21T04:39:16.265Z,3.33
2019-05-21T04:41:44.771Z,3.20
2019-05-21T04:44:13.017Z,3.37
2019-05-21T04:46:41.294Z,3.20
2019-05-21T04:49:09.539Z,2.97
2019-05-21T04:51:38.135Z,3.00
2019-05-21T04:54:06.447Z,3.30
2019-05-21T04:56:34.711Z,3.30
2019-05-21T04:59:03.262Z,3.13
2019-05-21T05:01:31.541Z,3.27
2019-05-21T05:03:59.786Z,3.17
2019-05-21T05:06:28.334Z,3.20
2019-05-21T05:08:56.576Z,3.20
2019-05-21T05:11:24.826Z,2.97
2019-05-21T05:13:53.118Z,3.30
2019-05-21T05:16:21.359Z,2.90
2019-05-21T05:18:49.704Z,2.80
2019-05-21T05:21:17.954Z,3.05
2019-05-21T05:23:46.237Z,3.10
2019-05-21T05:26:14.517Z,3.13
2019-05-21T05:28:42.840Z,3.07
2019-05-21T05:31:14.674Z,3.27
2019-05-21T05:33:41.122Z,3.13
2019-05-21T05:36:09.709Z,3.40
2019-05-21T05:38:38.353Z,3.33
2019-05-21T05:41:06.616Z,3.10
2019-05-21T05:43:34.870Z,2.97
2019-05-21T05:46:03.318Z,3.33
2019-05-21T05:48:33.204Z,3.13
2019-05-21T05:51:06.109Z,3.60
2019-05-21T05:53:36.021Z,3.58
2019-05-21T05:56:04.797Z,3.47
2019-05-21T05:58:33.449Z,3.30
2019-05-21T06:01:01.757Z,3.30
2019-05-21T06:03:30.077Z,3.20
2019-05-21T06:05:58.404Z,3.13
2019-05-21T06:08:26.945Z,2.87
2019-05-21T06:10:55.197Z,3.20
2019-05-21T06:13:23.485Z,3.20
2019-05-21T06:15:51.754Z,3.30
2019-05-21T06:18:20.020Z,3.45
2019-05-21T06:20:48.581Z,3.37
2019-05-21T06:23:16.969Z,3.73
2019-05-21T06:25:45.261Z,3.43
2019-05-21T06:28:13.526Z,3.30
2019-05-21T06:30:41.881Z,3.33
2019-05-21T06:33:10.167Z,3.10
2019-05-21T06:35:38.765Z,3.50
2019-05-21T06:38:17.154Z,3.07
2019-05-21T06:40:38.598Z,3.40
2019-05-21T06:43:07.360Z,3.20
2019-05-21T06:45:35.634Z,3.30
2019-05-21T06:48:03.911Z,3.43
2019-05-21T06:50:32.154Z,3.20
2019-05-21T06:53:01.016Z,3.63
2019-05-21T06:55:29.449Z,3.27
2019-05-21T06:57:57.717Z,3.50
2019-05-21T07:00:26.039Z,3.63
2019-05-21T07:02:54.496Z,3.30
2019-05-21T07:05:22.734Z,2.97
2019-05-21T07:07:51.282Z,3.20
2019-05-21T07:10:19.566Z,3.40
2019-05-21T07:12:47.802Z,3.30
2019-05-21T07:15:16.097Z,3.30
2019-05-21T07:17:44.794Z,3.43
2019-05-21T07:20:13.113Z,3.40
2019-05-21T07:22:41.501Z,3.17
2019-05-21T07:25:11.367Z,3.10
2019-05-21T07:27:39.711Z,3.50
2019-05-21T07:30:09.327Z,3.27
2019-05-21T07:32:37.728Z,3.60
2019-05-21T07:35:06.149Z,3.50
2019-05-21T07:37:34.414Z,3.37
2019-05-21T07:40:02.682Z,3.23
2019-05-21T07:42:30.976Z,3.60
2019-05-21T07:44:59.224Z,3.50
2019-05-21T07:47:27.539Z,3.20
2019-05-21T07:49:55.820Z,3.30
2019-05-21T07:52:24.094Z,3.43
2019-05-21T07:54:52.847Z,3.47
2019-05-21T07:57:21.256Z,3.50
2019-05-21T07:59:49.501Z,3.50
2019-05-21T08:02:18.090Z,3.37
2019-05-21T08:04:46.357Z,3.53
2019-05-21T08:07:14.754Z,3.50
2019-05-21T08:09:43.041Z,3.20
2019-05-21T08:12:36.818Z,3.60
2019-05-21T08:14:41.303Z,3.50
2019-05-21T08:17:09.554Z,3.50
2019-05-21T08:19:38.267Z,3.70
2019-05-21T08:22:06.742Z,3.70
2019-05-21T08:24:35.518Z,3.60
2019-05-21T08:27:03.786Z,3.60
2019-05-21T08:29:32.051Z,3.60
2019-05-21T08:32:00.298Z,3.80
2019-05-21T08:34:28.583Z,3.77
2019-05-21T08:36:57.204Z,3.60
2019-05-21T08:39:28.772Z,3.63
2019-05-21T08:41:55.443Z,3.60
2019-05-21T08:44:23.704Z,4.10
2019-05-21T08:46:52.011Z,3.73
2019-05-21T08:49:20.254Z,3.60
2019-05-21T08:51:48.532Z,3.73
2019-05-21T08:54:18.433Z,3.60
2019-05-21T08:56:46.692Z,3.87
2019-05-21T08:59:15.292Z,3.60
2019-05-21T09:01:43.571Z,3.80
2019-05-21T09:04:11.940Z,3.60
2019-05-21T09:06:40.533Z,3.67
2019-05-21T09:09:08.857Z,3.57
2019-05-21T09:11:37.190Z,3.70
2019-05-21T09:14:05.765Z,3.83
2019-05-21T09:16:34.353Z,3.80
2019-05-21T09:19:02.621Z,3.60
2019-05-21T09:21:30.928Z,3.47
2019-05-21T09:23:59.330Z,3.83
2019-05-21T09:26:27.632Z,3.53
2019-05-21T09:28:55.908Z,3.33
2019-05-21T09:31:24.221Z,3.70
2019-05-21T09:33:52.489Z,3.50
2019-05-21T09:36:20.738Z,3.47
2019-05-21T09:38:49.031Z,3.83
2019-05-21T09:41:17.291Z,3.80
2019-05-21T09:43:45.597Z,3.60
2019-05-21T09:46:13.861Z,3.47
2019-05-21T09:48:42.465Z,3.50
2019-05-21T09:51:19.343Z,3.60
2019-05-21T09:53:41.065Z,3.50
2019-05-21T09:56:27.470Z,3.63
2019-05-21T09:58:57.397Z,3.50
2019-05-21T10:01:27.502Z,3.60
2019-05-21T10:03:57.219Z,3.83
2019-05-21T10:06:25.485Z,3.30
2019-05-21T10:08:53.752Z,3.07
2019-05-21T10:11:22.104Z,3.23
2019-05-21T10:13:50.666Z,3.30
2019-05-21T10:16:18.926Z,3.37
2019-05-21T10:18:47.261Z,3.30
2019-05-21T10:21:15.581Z,3.20
2019-05-21T10:23:43.845Z,3.33
2019-05-21T10:26:12.340Z,3.23
2019-05-21T10:28:40.620Z,3.47
2019-05-21T10:31:08.901Z,3.40
2019-05-21T10:33:37.480Z,3.25
2019-05-21T10:36:05.894Z,3.00
2019-05-21T10:38:34.205Z,3.23
2019-05-21T10:41:02.544Z,3.17
2019-05-21T10:43:31.212Z,3.00
2019-05-21T10:45:59.511Z,3.63
2019-05-21T10:48:27.759Z,3.00
2019-05-21T10:50:56.419Z,3.10
2019-05-21T10:53:24.740Z,3.23
2019-05-21T10:55:52.985Z,3.13
2019-05-21T10:58:21.241Z,3.23
2019-05-21T11:00:51.374Z,3.30
2019-05-21T11:03:37.689Z,3.10
2019-05-21T11:06:10.311Z,2.83
2019-05-21T11:08:36.161Z,3.10
2019-05-21T11:11:04.744Z,3.53
2019-05-21T11:13:33.071Z,2.93
2019-05-21T11:16:01.416Z,3.30
2019-05-21T11:18:30.183Z,3.27
2019-05-21T11:20:58.471Z,2.80
2019-05-21T11:23:26.713Z,3.00
2019-05-21T11:25:55.332Z,3.20
2019-05-21T11:28:23.607Z,3.07
2019-05-21T11:30:52.263Z,3.00
2019-05-21T11:33:20.674Z,3.10
2019-05-21T11:35:48.974Z,3.10
2019-05-21T11:38:17.236Z,3.17
2019-05-21T11:40:50.795Z,3.53
2019-05-21T11:43:15.524Z,2.90
2019-05-21T11:45:44.101Z,3.60
2019-05-21T11:48:12.614Z,4.67
2019-05-21T11:50:41.294Z,3.67
2019-05-21T11:53:09.691Z,4.50
2019-05-21T11:55:38.226Z,6.67
2019-05-21T11:58:06.506Z,9.93
2019-05-21T12:00:34.959Z,6.97
2019-05-21T12:03:03.263Z,5.90
2019-05-21T12:05:35.191Z,4.90
2019-05-21T12:08:03.560Z,4.50
2019-05-21T12:10:31.844Z,4.50
2019-05-21T12:13:00.182Z,4.70
2019-05-21T12:15:28.746Z,4.20
2019-05-21T12:17:57.052Z,5.03
2019-05-21T12:20:35.915Z,5.58
2019-05-21T12:22:55.327Z,4.90
2019-05-21T12:25:23.586Z,4.85
2019-05-21T12:27:51.864Z,4.73
2019-05-21T12:30:20.198Z,4.77
2019-05-21T12:32:48.511Z,5.13
2019-05-21T12:35:16.765Z,4.87
2019-05-21T12:37:45.027Z,5.83
2019-05-21T12:40:14.461Z,6.00
2019-05-21T12:42:42.801Z,5.90
2019-05-21T12:45:11.088Z,6.33
2019-05-21T12:47:39.435Z,5.28
2019-05-21T12:50:07.887Z,5.05
2019-05-21T12:52:36.175Z,5.07
2019-05-21T12:55:06.582Z,4.93
2019-05-21T12:57:36.053Z,4.70
2019-05-21T13:00:06.990Z,4.67
2019-05-21T13:02:35.235Z,4.97
2019-05-21T13:05:04.226Z,5.40
2019-05-21T13:07:32.510Z,5.05
2019-05-21T13:10:00.761Z,4.73
2019-05-21T13:12:29.031Z,5.80
2019-05-21T13:14:57.369Z,6.23
2019-05-21T13:17:26.009Z,5.33
2019-05-21T13:19:54.302Z,5.73
2019-05-21T13:22:22.977Z,5.70
2019-05-21T13:24:51.293Z,5.72
2019-05-21T13:27:19.576Z,5.97
2019-05-21T13:29:47.872Z,6.90
2019-05-21T13:32:16.193Z,6.08
2019-05-21T13:34:44.489Z,5.80
2019-05-21T13:37:12.741Z,6.33
2019-05-21T13:39:50.086Z,8.05
2019-05-21T13:42:11.334Z,9.87
2019-05-21T13:44:39.608Z,8.65
2019-05-21T13:47:07.984Z,11.27
2019-05-21T13:49:36.566Z,9.93
2019-05-21T13:52:04.870Z,10.13
2019-05-21T13:54:33.455Z,10.77
2019-05-21T13:57:01.739Z,8.90
2019-05-21T13:59:29.992Z,9.97
2019-05-21T14:01:58.867Z,10.27
2019-05-21T14:04:27.151Z,11.10
2019-05-21T14:06:55.597Z,10.73
2019-05-21T14:09:24.062Z,10.70
2019-05-21T14:11:52.664Z,16.53
2019-05-21T14:14:20.935Z,14.03
2019-05-21T14:16:49.360Z,16.33
2019-05-21T14:19:17.649Z,15.80
2019-05-21T14:21:45.924Z,15.57
2019-05-21T14:24:14.198Z,14.28
2019-05-21T14:26:42.481Z,13.77
2019-05-21T14:29:10.780Z,13.48
2019-05-21T14:31:39.025Z,12.43
2019-05-21T14:34:07.305Z,12.13
2019-05-21T14:36:36.107Z,12.37
2019-05-21T14:39:08.433Z,12.40
2019-05-21T14:41:36.710Z,11.43
2019-05-21T14:44:05.252Z,11.87
2019-05-21T14:46:33.897Z,11.85
2019-05-21T14:49:02.405Z,11.33
2019-05-21T14:51:31.015Z,11.37
2019-05-21T14:54:05.886Z,12.05
2019-05-21T14:56:34.185Z,11.43
2019-05-21T14:59:02.613Z,11.43
2019-05-21T15:01:30.913Z,12.37
2019-05-21T15:03:59.541Z,11.53
2019-05-21T15:06:28.469Z,10.90
2019-05-21T15:08:56.721Z,11.28
2019-05-21T15:11:25.265Z,10.90
2019-05-21T15:13:53.848Z,9.83
2019-05-21T15:16:22.168Z,10.30
2019-05-21T15:18:50.420Z,10.90
2019-05-21T15:21:20.621Z,10.33
2019-05-21T15:23:49.320Z,11.03
2019-05-21T15:26:17.766Z,10.18
2019-05-21T15:28:46.051Z,10.07
2019-05-21T15:31:14.331Z,10.10
2019-05-21T15:33:42.641Z,10.93
2019-05-21T15:36:10.968Z,13.70
2019-05-21T15:38:50.244Z,9.95
2019-05-21T15:41:12.189Z,9.60
2019-05-21T15:43:39.556Z,10.00
2019-05-21T15:46:07.813Z,10.03
2019-05-21T15:48:36.109Z,10.28
2019-05-21T15:51:04.355Z,9.70
2019-05-21T15:53:32.605Z,9.63
2019-05-21T15:56:00.883Z,9.70
2019-05-21T15:58:29.143Z,9.00
2019-05-21T16:00:57.509Z,8.63
2019-05-21T16:03:25.914Z,8.60
2019-05-21T16:05:54.186Z,9.13
2019-05-21T16:08:22.477Z,9.43
2019-05-21T16:10:50.828Z,8.30
2019-05-21T16:13:19.442Z,9.13
2019-05-21T16:15:47.702Z,8.63
2019-05-21T16:18:15.987Z,8.50
2019-05-21T16:20:44.229Z,8.40
2019-05-21T16:23:12.770Z,8.33
2019-05-21T16:25:41.021Z,8.25
2019-05-21T16:28:09.525Z,8.50
2019-05-21T16:30:37.924Z,8.00
2019-05-21T16:33:06.212Z,7.97
2019-05-21T16:35:34.861Z,8.70
2019-05-21T16:38:03.131Z,8.53
2019-05-21T16:40:31.430Z,8.20
2019-05-21T16:42:59.997Z,8.27
2019-05-21T16:45:28.335Z,6.92
2019-05-21T16:47:56.667Z,7.87
2019-05-21T16:50:25.234Z,7.70
2019-05-21T16:52:53.582Z,7.00
2019-05-21T16:55:22.203Z,6.80
2019-05-21T16:57:50.479Z,7.73
2019-05-21T17:00:19.622Z,8.43
2019-05-21T17:02:47.941Z,7.53
2019-05-21T17:05:16.563Z,7.20
2019-05-21T17:07:44.831Z,7.80
2019-05-21T17:10:13.325Z,7.20
2019-05-21T17:12:41.710Z,7.20
2019-05-21T17:15:10.135Z,7.50
2019-05-21T17:17:38.784Z,6.62
2019-05-21T17:20:09.390Z,7.00
2019-05-21T17:22:37.644Z,7.00
2019-05-21T17:25:07.190Z,7.30
2019-05-21T17:27:35.559Z,7.27
2019-05-21T17:30:06.049Z,6.60
2019-05-21T17:32:34.327Z,7.10
2019-05-21T17:35:02.580Z,6.33
2019-05-21T17:37:30.878Z,6.53
2019-05-21T17:39:59.586Z,6.12
2019-05-21T17:42:27.921Z,6.05
2019-05-21T17:44:56.197Z,6.07
2019-05-21T17:47:24.631Z,6.60
2019-05-21T17:49:56.011Z,6.00
2019-05-21T17:52:24.847Z,6.47
2019-05-21T17:54:56.900Z,6.08
2019-05-21T17:57:23.279Z,5.90
2019-05-21T17:59:51.556Z,5.80
2019-05-21T18:02:19.801Z,6.30
2019-05-21T18:04:48.515Z,6.55
2019-05-21T18:07:17.269Z,5.47
2019-05-21T18:09:46.420Z,6.00
2019-05-21T18:12:31.052Z,5.10
2019-05-21T18:14:46.340Z,5.93
2019-05-21T18:17:16.471Z,5.70
2019-05-21T18:19:45.447Z,5.80
2019-05-21T18:22:15.363Z,5.53
2019-05-21T18:24:43.661Z,5.80
2019-05-21T18:27:11.961Z,5.20
2019-05-21T18:29:40.259Z,5.40
2019-05-21T18:32:08.512Z,5.47
2019-05-21T18:34:36.931Z,5.80
2019-05-21T18:37:05.169Z,5.17
2019-05-21T18:39:35.962Z,4.93
2019-05-21T18:42:04.662Z,5.05
2019-05-21T18:44:32.934Z,5.50
2019-05-21T18:47:01.196Z,4.93
2019-05-21T18:49:29.754Z,5.15
2019-05-21T18:51:58.053Z,5.37
2019-05-21T18:54:26.302Z,5.40
2019-05-21T18:56:54.569Z,5.17
2019-05-21T18:59:22.902Z,5.20
2019-05-21T19:01:51.472Z,4.70
2019-05-21T19:04:19.809Z,4.37
2019-05-21T19:06:48.401Z,5.15
2019-05-21T19:09:16.671Z,4.70
2019-05-21T19:11:44.926Z,5.28
2019-05-21T19:14:13.196Z,5.20
2019-05-21T19:16:41.562Z,5.15
2019-05-21T19:19:09.880Z,5.30
2019-05-21T19:21:38.468Z,4.77
2019-05-21T19:24:06.773Z,4.90
2019-05-21T19:26:35.014Z,5.13
2019-05-21T19:29:03.264Z,5.40
2019-05-21T19:31:31.598Z,4.90
2019-05-21T19:34:00.257Z,5.07
2019-05-21T19:36:28.848Z,4.87
2019-05-21T19:38:57.104Z,4.47
2019-05-21T19:41:25.810Z,4.63
2019-05-21T19:43:54.069Z,4.73
2019-05-21T19:46:22.993Z,4.33
2019-05-21T19:48:51.495Z,4.87
2019-05-21T19:51:19.817Z,4.50
2019-05-21T19:53:48.073Z,4.53
2019-05-21T19:56:16.454Z,4.40
2019-05-21T19:58:44.701Z,4.60
2019-05-21T20:01:12.978Z,4.60
2019-05-21T20:03:41.527Z,4.60
2019-05-21T20:06:10.178Z,4.50
2019-05-21T20:08:38.526Z,4.50
2019-05-21T20:11:07.437Z,4.20
2019-05-21T20:13:35.686Z,4.40
2019-05-21T20:16:04.740Z,4.60
2019-05-21T20:18:32.989Z,4.43
2019-05-21T20:21:01.443Z,4.23
2019-05-21T20:23:29.993Z,4.07
2019-05-21T20:25:58.691Z,4.23
2019-05-21T20:28:27.597Z,4.00
2019-05-21T20:30:56.149Z,3.63
2019-05-21T20:33:24.465Z,3.83
2019-05-21T20:35:53.756Z,4.08
2019-05-21T20:38:23.502Z,4.03
2019-05-21T20:40:52.080Z,4.30
2019-05-21T20:43:20.362Z,4.13
2019-05-21T20:45:49.076Z,4.07
2019-05-21T20:48:19.324Z,4.03
2019-05-21T20:50:48.363Z,4.13
2019-05-21T20:53:16.710Z,3.73
2019-05-21T20:55:45.261Z,4.00
2019-05-21T20:58:13.992Z,4.03
2019-05-21T21:00:49.845Z,3.43
2019-05-21T21:03:18.706Z,3.97
2019-05-21T21:05:46.980Z,3.60
2019-05-21T21:08:16.006Z,3.60
2019-05-21T21:10:44.537Z,3.80
2019-05-21T21:13:14.372Z,3.83
2019-05-21T21:15:43.611Z,3.90
2019-05-21T21:18:11.989Z,3.83
2019-05-21T21:20:40.257Z,4.23
2019-05-21T21:23:08.521Z,3.70
2019-05-21T21:25:37.042Z,3.80
2019-05-21T21:28:05.384Z,3.87
2019-05-21T21:30:34.698Z,3.40
2019-05-21T21:33:03.130Z,3.77
2019-05-21T21:35:32.954Z,3.43
2019-05-21T21:38:02.018Z,3.77
2019-05-21T21:40:30.647Z,3.87
2019-05-21T21:42:58.942Z,4.00
2019-05-21T21:45:27.602Z,3.60
2019-05-21T21:47:56.523Z,3.47
2019-05-21T21:50:25.862Z,3.70
2019-05-21T21:52:54.371Z,3.53
2019-05-21T21:55:22.692Z,3.70
2019-05-21T21:57:50.962Z,3.67
2019-05-21T22:01:00.890Z,3.57
2019-05-21T22:03:30.799Z,3.50
2019-05-21T22:05:59.999Z,3.50
2019-05-21T22:08:30.189Z,3.60
2019-05-21T22:10:58.511Z,3.67
2019-05-21T22:13:27.024Z,3.47
2019-05-21T22:15:55.284Z,2.93
2019-05-21T22:18:24.712Z,3.50
2019-05-21T22:20:53.191Z,3.40
2019-05-21T22:23:22.140Z,3.67
2019-05-21T22:25:50.586Z,3.80
2019-05-21T22:28:19.609Z,3.53
2019-05-21T22:30:48.445Z,3.77
2019-05-21T22:33:17.107Z,3.40
2019-05-21T22:35:45.662Z,3.10
2019-05-21T22:38:14.312Z,3.10
2019-05-21T22:40:42.577Z,3.37
2019-05-21T22:43:10.898Z,3.23
2019-05-21T22:45:39.798Z,3.40
2019-05-21T22:48:08.080Z,3.50
2019-05-21T22:50:36.409Z,2.90
2019-05-21T22:53:04.761Z,3.00
2019-05-21T22:55:33.017Z,3.30
2019-05-21T22:58:01.273Z,3.07
2019-05-21T23:00:31.187Z,2.97
2019-05-21T23:02:59.444Z,3.13
2019-05-21T23:05:27.720Z,3.60
2019-05-21T23:07:56.245Z,3.07
2019-05-21T23:10:24.517Z,3.10
2019-05-21T23:12:53.014Z,3.20
2019-05-21T23:15:25.358Z,3.47
2019-05-21T23:17:51.734Z,2.83
2019-05-21T23:20:21.179Z,2.90
2019-05-21T23:22:51.065Z,3.20
2019-05-21T23:25:19.336Z,3.30
2019-05-21T23:27:48.599Z,2.97
2019-05-21T23:30:17.498Z,3.27
2019-05-21T23:32:45.767Z,3.00
2019-05-21T23:35:14.758Z,3.22
2019-05-21T23:37:44.559Z,3.10
2019-05-21T23:40:13.323Z,3.20
2019-05-21T23:42:42.598Z,3.10
2019-05-21T23:45:12.537Z,3.20
2019-05-21T23:47:41.145Z,2.77
2019-05-21T23:50:11.929Z,2.90
2019-05-21T23:52:40.272Z,2.87
2019-05-21T23:55:08.593Z,3.00
2019-05-21T23:57:36.930Z,3.10
